sensor_id;sensor_type;location;lat;lon;timestamp;P1;durP1;ratioP1;P2;durP2;ratioP2
59468;SDS011;45277;52.768;18.262;2022-07-10T00:00:19;18.45;;;7.18;;
59468;SDS011;45277;52.768;18.262;2022-07-10T00:02:07;16.67;;;6.40;;
59468;SDS011;45277;52.768;18.262;2022-07-10T00:03:39;15.40;;;6.20;;
59468;SDS011;45277;52.768;18.262;2022-07-10T00:05:10;14.60;;;6.35;;
59468;SDS011;45277;52.768;18.262;2022-07-10T00:08:19;13.15;;;6.25;;
59468;SDS011;45277;52.768;18.262;2022-07-10T00:09:51;12.80;;;6.00;;
59468;SDS011;45277;52.768;18.262;2022-07-10T00:11:28;12.93;;;5.90;;
59468;SDS011;45277;52.768;18.262;2022-07-10T00:12:59;12.88;;;5.97;;
59468;SDS011;45277;52.768;18.262;2022-07-10T00:14:33;13.07;;;6.75;;
59468;SDS011;45277;52.768;18.262;2022-07-10T00:16:04;14.10;;;6.10;;
59468;SDS011;45277;52.768;18.262;2022-07-10T00:17:36;13.52;;;6.68;;
59468;SDS011;45277;52.768;18.262;2022-07-10T00:19:09;14.75;;;6.10;;
59468;SDS011;45277;52.768;18.262;2022-07-10T00:20:41;8.50;;;5.80;;
59468;SDS011;45277;52.768;18.262;2022-07-10T00:22:13;14.38;;;6.57;;
59468;SDS011;45277;52.768;18.262;2022-07-10T00:23:44;10.25;;;5.65;;
59468;SDS011;45277;52.768;18.262;2022-07-10T00:25:16;13.38;;;6.47;;
59468;SDS011;45277;52.768;18.262;2022-07-10T00:26:48;16.13;;;6.72;;
59468;SDS011;45277;52.768;18.262;2022-07-10T00:28:19;12.82;;;7.05;;
59468;SDS011;45277;52.768;18.262;2022-07-10T00:29:51;16.48;;;7.68;;
59468;SDS011;45277;52.768;18.262;2022-07-10T00:31:24;16.70;;;6.90;;
59468;SDS011;45277;52.768;18.262;2022-07-10T00:32:55;18.52;;;6.88;;
59468;SDS011;45277;52.768;18.262;2022-07-10T00:34:27;27.77;;;7.78;;
59468;SDS011;45277;52.768;18.262;2022-07-10T00:35:58;17.77;;;7.45;;
59468;SDS011;45277;52.768;18.262;2022-07-10T00:37:31;21.40;;;7.22;;
59468;SDS011;45277;52.768;18.262;2022-07-10T00:39:09;23.55;;;7.07;;
59468;SDS011;45277;52.768;18.262;2022-07-10T00:40:41;18.58;;;8.15;;
59468;SDS011;45277;52.768;18.262;2022-07-10T00:42:14;18.35;;;8.80;;
59468;SDS011;45277;52.768;18.262;2022-07-10T00:43:57;25.58;;;8.75;;
59468;SDS011;45277;52.768;18.262;2022-07-10T00:45:31;24.00;;;8.63;;
59468;SDS011;45277;52.768;18.262;2022-07-10T00:47:03;26.42;;;9.38;;
59468;SDS011;45277;52.768;18.262;2022-07-10T00:48:36;24.20;;;9.48;;
59468;SDS011;45277;52.768;18.262;2022-07-10T00:50:08;21.98;;;9.15;;
59468;SDS011;45277;52.768;18.262;2022-07-10T00:51:46;24.92;;;9.07;;
59468;SDS011;45277;52.768;18.262;2022-07-10T00:53:18;18.45;;;8.05;;
59468;SDS011;45277;52.768;18.262;2022-07-10T00:54:56;10.50;;;6.20;;
59468;SDS011;45277;52.768;18.262;2022-07-10T00:56:29;22.42;;;6.20;;
59468;SDS011;45277;52.768;18.262;2022-07-10T00:58:04;11.18;;;5.75;;
59468;SDS011;45277;52.768;18.262;2022-07-10T00:59:40;13.52;;;5.72;;
59468;SDS011;45277;52.768;18.262;2022-07-10T01:01:11;10.60;;;5.68;;
59468;SDS011;45277;52.768;18.262;2022-07-10T01:02:45;13.02;;;5.95;;
59468;SDS011;45277;52.768;18.262;2022-07-10T01:04:17;13.43;;;5.90;;
59468;SDS011;45277;52.768;18.262;2022-07-10T01:05:50;7.85;;;5.43;;
59468;SDS011;45277;52.768;18.262;2022-07-10T01:07:22;9.88;;;5.47;;
59468;SDS011;45277;52.768;18.262;2022-07-10T01:08:53;10.82;;;5.55;;
59468;SDS011;45277;52.768;18.262;2022-07-10T01:10:25;11.32;;;5.95;;
59468;SDS011;45277;52.768;18.262;2022-07-10T01:11:59;8.05;;;5.55;;
59468;SDS011;45277;52.768;18.262;2022-07-10T01:13:32;14.43;;;5.95;;
59468;SDS011;45277;52.768;18.262;2022-07-10T01:15:04;11.35;;;5.05;;
59468;SDS011;45277;52.768;18.262;2022-07-10T01:16:36;10.00;;;6.22;;
59468;SDS011;45277;52.768;18.262;2022-07-10T01:18:08;8.02;;;4.90;;
59468;SDS011;45277;52.768;18.262;2022-07-10T01:19:40;13.95;;;5.05;;
59468;SDS011;45277;52.768;18.262;2022-07-10T01:21:28;8.90;;;4.85;;
59468;SDS011;45277;52.768;18.262;2022-07-10T01:23:04;12.52;;;5.20;;
59468;SDS011;45277;52.768;18.262;2022-07-10T01:24:36;12.85;;;4.93;;
59468;SDS011;45277;52.768;18.262;2022-07-10T01:26:08;9.27;;;4.22;;
59468;SDS011;45277;52.768;18.262;2022-07-10T01:27:40;7.40;;;4.80;;
59468;SDS011;45277;52.768;18.262;2022-07-10T01:29:14;7.88;;;4.70;;
59468;SDS011;45277;52.768;18.262;2022-07-10T01:30:46;10.20;;;5.45;;
59468;SDS011;45277;52.768;18.262;2022-07-10T01:32:18;12.20;;;5.28;;
59468;SDS011;45277;52.768;18.262;2022-07-10T01:33:50;17.45;;;6.75;;
59468;SDS011;45277;52.768;18.262;2022-07-10T01:35:21;9.07;;;5.25;;
59468;SDS011;45277;52.768;18.262;2022-07-10T01:36:54;10.80;;;4.95;;
59468;SDS011;45277;52.768;18.262;2022-07-10T01:38:26;6.72;;;5.43;;
59468;SDS011;45277;52.768;18.262;2022-07-10T01:39:59;10.63;;;5.63;;
59468;SDS011;45277;52.768;18.262;2022-07-10T01:41:31;8.38;;;5.63;;
59468;SDS011;45277;52.768;18.262;2022-07-10T01:43:03;16.40;;;5.75;;
59468;SDS011;45277;52.768;18.262;2022-07-10T01:44:35;11.55;;;5.22;;
59468;SDS011;45277;52.768;18.262;2022-07-10T01:46:06;7.20;;;4.97;;
59468;SDS011;45277;52.768;18.262;2022-07-10T01:47:39;9.10;;;5.18;;
59468;SDS011;45277;52.768;18.262;2022-07-10T01:49:10;8.02;;;4.55;;
59468;SDS011;45277;52.768;18.262;2022-07-10T01:50:43;5.80;;;4.50;;
59468;SDS011;45277;52.768;18.262;2022-07-10T01:52:21;11.13;;;4.82;;
59468;SDS011;45277;52.768;18.262;2022-07-10T01:53:52;6.80;;;4.53;;
59468;SDS011;45277;52.768;18.262;2022-07-10T01:55:24;15.55;;;4.97;;
59468;SDS011;45277;52.768;18.262;2022-07-10T01:56:56;8.35;;;4.68;;
59468;SDS011;45277;52.768;18.262;2022-07-10T01:58:27;8.02;;;5.10;;
59468;SDS011;45277;52.768;18.262;2022-07-10T02:00:00;8.25;;;5.25;;
59468;SDS011;45277;52.768;18.262;2022-07-10T02:01:32;15.30;;;5.22;;
59468;SDS011;45277;52.768;18.262;2022-07-10T02:03:05;10.80;;;5.03;;
59468;SDS011;45277;52.768;18.262;2022-07-10T02:04:55;12.20;;;4.97;;
59468;SDS011;45277;52.768;18.262;2022-07-10T02:06:27;9.45;;;5.43;;
59468;SDS011;45277;52.768;18.262;2022-07-10T02:07:59;9.13;;;4.97;;
59468;SDS011;45277;52.768;18.262;2022-07-10T02:09:32;13.05;;;5.30;;
59468;SDS011;45277;52.768;18.262;2022-07-10T02:11:05;7.13;;;4.97;;
59468;SDS011;45277;52.768;18.262;2022-07-10T02:12:37;9.57;;;3.90;;
59468;SDS011;45277;52.768;18.262;2022-07-10T02:14:08;9.02;;;4.43;;
59468;SDS011;45277;52.768;18.262;2022-07-10T02:15:41;9.40;;;4.72;;
59468;SDS011;45277;52.768;18.262;2022-07-10T02:17:18;12.65;;;4.72;;
59468;SDS011;45277;52.768;18.262;2022-07-10T02:18:50;10.57;;;5.22;;
59468;SDS011;45277;52.768;18.262;2022-07-10T02:20:22;10.15;;;4.93;;
59468;SDS011;45277;52.768;18.262;2022-07-10T02:21:53;12.43;;;4.90;;
59468;SDS011;45277;52.768;18.262;2022-07-10T02:23:25;10.55;;;4.97;;
59468;SDS011;45277;52.768;18.262;2022-07-10T02:25:03;18.23;;;4.93;;
59468;SDS011;45277;52.768;18.262;2022-07-10T02:26:34;12.23;;;5.60;;
59468;SDS011;45277;52.768;18.262;2022-07-10T02:28:07;18.02;;;5.65;;
59468;SDS011;45277;52.768;18.262;2022-07-10T02:29:40;12.82;;;5.43;;
59468;SDS011;45277;52.768;18.262;2022-07-10T02:31:12;13.30;;;6.22;;
59468;SDS011;45277;52.768;18.262;2022-07-10T02:32:46;13.55;;;5.85;;
59468;SDS011;45277;52.768;18.262;2022-07-10T02:34:17;14.60;;;5.90;;
59468;SDS011;45277;52.768;18.262;2022-07-10T02:35:49;13.98;;;5.90;;
59468;SDS011;45277;52.768;18.262;2022-07-10T02:37:22;11.80;;;5.57;;
59468;SDS011;45277;52.768;18.262;2022-07-10T02:38:55;15.55;;;6.20;;
59468;SDS011;45277;52.768;18.262;2022-07-10T02:40:28;19.13;;;6.57;;
59468;SDS011;45277;52.768;18.262;2022-07-10T02:42:00;14.68;;;6.53;;
59468;SDS011;45277;52.768;18.262;2022-07-10T02:43:32;14.32;;;6.68;;
59468;SDS011;45277;52.768;18.262;2022-07-10T02:45:04;15.80;;;5.95;;
59468;SDS011;45277;52.768;18.262;2022-07-10T02:46:38;16.80;;;7.72;;
59468;SDS011;45277;52.768;18.262;2022-07-10T02:48:10;17.33;;;6.40;;
59468;SDS011;45277;52.768;18.262;2022-07-10T02:49:44;15.63;;;5.93;;
59468;SDS011;45277;52.768;18.262;2022-07-10T02:51:16;13.85;;;6.10;;
59468;SDS011;45277;52.768;18.262;2022-07-10T02:52:47;14.05;;;6.75;;
59468;SDS011;45277;52.768;18.262;2022-07-10T02:54:19;18.30;;;6.30;;
59468;SDS011;45277;52.768;18.262;2022-07-10T02:55:51;12.32;;;5.25;;
59468;SDS011;45277;52.768;18.262;2022-07-10T02:57:22;15.80;;;6.20;;
59468;SDS011;45277;52.768;18.262;2022-07-10T02:58:54;11.00;;;5.45;;
59468;SDS011;45277;52.768;18.262;2022-07-10T03:00:26;12.70;;;5.97;;
59468;SDS011;45277;52.768;18.262;2022-07-10T03:01:58;14.02;;;5.03;;
59468;SDS011;45277;52.768;18.262;2022-07-10T03:03:31;11.60;;;5.47;;
59468;SDS011;45277;52.768;18.262;2022-07-10T03:06:38;11.23;;;4.70;;
59468;SDS011;45277;52.768;18.262;2022-07-10T03:08:09;10.95;;;5.22;;
59468;SDS011;45277;52.768;18.262;2022-07-10T03:09:41;6.78;;;4.88;;
59468;SDS011;45277;52.768;18.262;2022-07-10T03:11:14;9.63;;;4.10;;
59468;SDS011;45277;52.768;18.262;2022-07-10T03:12:51;11.82;;;5.47;;
59468;SDS011;45277;52.768;18.262;2022-07-10T03:14:23;8.18;;;4.30;;
59468;SDS011;45277;52.768;18.262;2022-07-10T03:15:55;12.52;;;4.45;;
59468;SDS011;45277;52.768;18.262;2022-07-10T03:17:27;12.93;;;4.05;;
59468;SDS011;45277;52.768;18.262;2022-07-10T03:18:59;16.77;;;5.45;;
59468;SDS011;45277;52.768;18.262;2022-07-10T03:20:38;11.38;;;5.30;;
59468;SDS011;45277;52.768;18.262;2022-07-10T03:22:10;13.27;;;6.10;;
59468;SDS011;45277;52.768;18.262;2022-07-10T03:23:42;10.23;;;4.28;;
59468;SDS011;45277;52.768;18.262;2022-07-10T03:25:13;12.57;;;4.10;;
59468;SDS011;45277;52.768;18.262;2022-07-10T03:26:46;8.93;;;3.30;;
59468;SDS011;45277;52.768;18.262;2022-07-10T03:28:19;9.25;;;3.63;;
59468;SDS011;45277;52.768;18.262;2022-07-10T03:29:50;7.80;;;3.65;;
59468;SDS011;45277;52.768;18.262;2022-07-10T03:31:23;8.60;;;4.07;;
59468;SDS011;45277;52.768;18.262;2022-07-10T03:32:56;10.90;;;3.60;;
59468;SDS011;45277;52.768;18.262;2022-07-10T03:34:27;14.57;;;4.85;;
59468;SDS011;45277;52.768;18.262;2022-07-10T03:36:01;12.52;;;3.67;;
59468;SDS011;45277;52.768;18.262;2022-07-10T03:37:33;12.82;;;4.32;;
59468;SDS011;45277;52.768;18.262;2022-07-10T03:39:05;11.20;;;4.25;;
59468;SDS011;45277;52.768;18.262;2022-07-10T03:40:39;14.98;;;5.93;;
59468;SDS011;45277;52.768;18.262;2022-07-10T03:42:11;17.02;;;5.75;;
59468;SDS011;45277;52.768;18.262;2022-07-10T03:43:42;21.27;;;8.35;;
59468;SDS011;45277;52.768;18.262;2022-07-10T03:45:15;20.05;;;8.20;;
59468;SDS011;45277;52.768;18.262;2022-07-10T03:46:47;24.63;;;13.38;;
59468;SDS011;45277;52.768;18.262;2022-07-10T03:48:19;20.77;;;9.05;;
59468;SDS011;45277;52.768;18.262;2022-07-10T03:49:52;20.25;;;8.57;;
59468;SDS011;45277;52.768;18.262;2022-07-10T03:51:23;22.10;;;10.05;;
59468;SDS011;45277;52.768;18.262;2022-07-10T03:53:00;21.75;;;8.63;;
59468;SDS011;45277;52.768;18.262;2022-07-10T03:54:32;13.30;;;6.40;;
59468;SDS011;45277;52.768;18.262;2022-07-10T03:56:04;19.92;;;8.15;;
59468;SDS011;45277;52.768;18.262;2022-07-10T03:57:36;15.90;;;6.60;;
59468;SDS011;45277;52.768;18.262;2022-07-10T03:59:33;14.15;;;6.05;;
59468;SDS011;45277;52.768;18.262;2022-07-10T04:01:04;19.15;;;7.15;;
59468;SDS011;45277;52.768;18.262;2022-07-10T04:02:36;9.75;;;5.05;;
59468;SDS011;45277;52.768;18.262;2022-07-10T04:04:08;13.10;;;4.22;;
59468;SDS011;45277;52.768;18.262;2022-07-10T04:05:39;9.02;;;3.75;;
59468;SDS011;45277;52.768;18.262;2022-07-10T04:07:12;8.70;;;3.47;;
59468;SDS011;45277;52.768;18.262;2022-07-10T04:08:44;8.88;;;3.53;;
59468;SDS011;45277;52.768;18.262;2022-07-10T04:10:18;10.63;;;3.22;;
59468;SDS011;45277;52.768;18.262;2022-07-10T04:11:52;10.85;;;3.03;;
59468;SDS011;45277;52.768;18.262;2022-07-10T04:13:31;8.35;;;2.45;;
59468;SDS011;45277;52.768;18.262;2022-07-10T04:15:03;8.38;;;2.88;;
59468;SDS011;45277;52.768;18.262;2022-07-10T04:16:36;10.98;;;2.85;;
59468;SDS011;45277;52.768;18.262;2022-07-10T04:18:08;5.97;;;2.35;;
59468;SDS011;45277;52.768;18.262;2022-07-10T04:19:39;6.28;;;2.67;;
59468;SDS011;45277;52.768;18.262;2022-07-10T04:21:11;9.32;;;2.95;;
59468;SDS011;45277;52.768;18.262;2022-07-10T04:22:43;9.63;;;3.03;;
59468;SDS011;45277;52.768;18.262;2022-07-10T04:24:15;7.40;;;2.75;;
59468;SDS011;45277;52.768;18.262;2022-07-10T04:25:48;6.40;;;2.58;;
59468;SDS011;45277;52.768;18.262;2022-07-10T04:27:21;9.68;;;2.78;;
59468;SDS011;45277;52.768;18.262;2022-07-10T04:28:59;9.63;;;2.63;;
59468;SDS011;45277;52.768;18.262;2022-07-10T04:30:32;11.52;;;2.90;;
59468;SDS011;45277;52.768;18.262;2022-07-10T04:32:05;6.28;;;2.20;;
59468;SDS011;45277;52.768;18.262;2022-07-10T04:33:37;7.78;;;2.70;;
59468;SDS011;45277;52.768;18.262;2022-07-10T04:35:09;7.93;;;2.75;;
59468;SDS011;45277;52.768;18.262;2022-07-10T04:36:42;6.53;;;2.72;;
59468;SDS011;45277;52.768;18.262;2022-07-10T04:38:15;6.03;;;2.40;;
59468;SDS011;45277;52.768;18.262;2022-07-10T04:39:46;6.18;;;2.72;;
59468;SDS011;45277;52.768;18.262;2022-07-10T04:41:18;9.02;;;2.72;;
59468;SDS011;45277;52.768;18.262;2022-07-10T04:42:51;6.82;;;2.28;;
59468;SDS011;45277;52.768;18.262;2022-07-10T04:44:22;6.50;;;2.30;;
59468;SDS011;45277;52.768;18.262;2022-07-10T04:45:54;5.82;;;1.85;;
59468;SDS011;45277;52.768;18.262;2022-07-10T04:47:25;7.50;;;2.38;;
59468;SDS011;45277;52.768;18.262;2022-07-10T04:48:57;4.47;;;2.53;;
59468;SDS011;45277;52.768;18.262;2022-07-10T04:50:29;4.35;;;2.10;;
59468;SDS011;45277;52.768;18.262;2022-07-10T04:52:01;5.45;;;2.20;;
59468;SDS011;45277;52.768;18.262;2022-07-10T04:53:39;7.45;;;2.20;;
59468;SDS011;45277;52.768;18.262;2022-07-10T04:55:11;6.60;;;2.00;;
59468;SDS011;45277;52.768;18.262;2022-07-10T04:56:44;2.33;;;2.13;;
59468;SDS011;45277;52.768;18.262;2022-07-10T04:58:16;8.45;;;2.00;;
59468;SDS011;45277;52.768;18.262;2022-07-10T04:59:53;6.32;;;2.22;;
59468;SDS011;45277;52.768;18.262;2022-07-10T05:01:26;6.68;;;1.80;;
59468;SDS011;45277;52.768;18.262;2022-07-10T05:02:57;2.28;;;1.67;;
59468;SDS011;45277;52.768;18.262;2022-07-10T05:04:29;4.55;;;1.90;;
59468;SDS011;45277;52.768;18.262;2022-07-10T05:06:01;8.63;;;2.40;;
59468;SDS011;45277;52.768;18.262;2022-07-10T05:07:35;8.32;;;3.30;;
59468;SDS011;45277;52.768;18.262;2022-07-10T05:09:13;5.10;;;2.97;;
59468;SDS011;45277;52.768;18.262;2022-07-10T05:10:45;8.45;;;4.25;;
59468;SDS011;45277;52.768;18.262;2022-07-10T05:12:17;8.68;;;3.97;;
59468;SDS011;45277;52.768;18.262;2022-07-10T05:13:48;7.90;;;2.00;;
59468;SDS011;45277;52.768;18.262;2022-07-10T05:15:21;6.40;;;1.80;;
59468;SDS011;45277;52.768;18.262;2022-07-10T05:16:53;7.63;;;1.85;;
59468;SDS011;45277;52.768;18.262;2022-07-10T05:18:26;7.05;;;2.22;;
59468;SDS011;45277;52.768;18.262;2022-07-10T05:19:58;5.18;;;1.83;;
59468;SDS011;45277;52.768;18.262;2022-07-10T05:21:29;2.00;;;1.42;;
59468;SDS011;45277;52.768;18.262;2022-07-10T05:23:03;5.40;;;1.85;;
59468;SDS011;45277;52.768;18.262;2022-07-10T05:24:35;6.35;;;2.35;;
59468;SDS011;45277;52.768;18.262;2022-07-10T05:26:08;3.45;;;1.90;;
59468;SDS011;45277;52.768;18.262;2022-07-10T05:27:40;3.35;;;1.80;;
59468;SDS011;45277;52.768;18.262;2022-07-10T05:29:11;7.32;;;1.90;;
59468;SDS011;45277;52.768;18.262;2022-07-10T05:30:44;2.70;;;1.60;;
59468;SDS011;45277;52.768;18.262;2022-07-10T05:32:16;3.28;;;1.88;;
59468;SDS011;45277;52.768;18.262;2022-07-10T05:33:47;5.38;;;2.42;;
59468;SDS011;45277;52.768;18.262;2022-07-10T05:35:18;5.25;;;1.77;;
59468;SDS011;45277;52.768;18.262;2022-07-10T05:36:50;9.10;;;3.00;;
59468;SDS011;45277;52.768;18.262;2022-07-10T05:38:22;4.05;;;1.80;;
59468;SDS011;45277;52.768;18.262;2022-07-10T05:39:53;4.47;;;2.00;;
59468;SDS011;45277;52.768;18.262;2022-07-10T05:41:24;3.72;;;1.40;;
59468;SDS011;45277;52.768;18.262;2022-07-10T05:42:56;11.57;;;1.90;;
59468;SDS011;45277;52.768;18.262;2022-07-10T05:44:28;3.47;;;1.50;;
59468;SDS011;45277;52.768;18.262;2022-07-10T05:45:59;4.22;;;1.92;;
59468;SDS011;45277;52.768;18.262;2022-07-10T05:47:32;5.47;;;2.10;;
59468;SDS011;45277;52.768;18.262;2022-07-10T05:49:07;4.03;;;1.85;;
59468;SDS011;45277;52.768;18.262;2022-07-10T05:50:40;6.13;;;2.22;;
59468;SDS011;45277;52.768;18.262;2022-07-10T05:52:12;6.38;;;1.83;;
59468;SDS011;45277;52.768;18.262;2022-07-10T05:53:45;7.15;;;2.20;;
59468;SDS011;45277;52.768;18.262;2022-07-10T05:55:23;9.07;;;2.70;;
59468;SDS011;45277;52.768;18.262;2022-07-10T05:56:55;4.78;;;2.00;;
59468;SDS011;45277;52.768;18.262;2022-07-10T05:58:27;7.90;;;2.08;;
59468;SDS011;45277;52.768;18.262;2022-07-10T06:00:01;7.60;;;3.17;;
59468;SDS011;45277;52.768;18.262;2022-07-10T06:01:35;3.15;;;1.88;;
59468;SDS011;45277;52.768;18.262;2022-07-10T06:03:07;6.72;;;2.17;;
59468;SDS011;45277;52.768;18.262;2022-07-10T06:04:40;7.30;;;2.30;;
59468;SDS011;45277;52.768;18.262;2022-07-10T06:06:12;5.20;;;2.50;;
59468;SDS011;45277;52.768;18.262;2022-07-10T06:07:47;8.25;;;2.20;;
59468;SDS011;45277;52.768;18.262;2022-07-10T06:09:19;4.00;;;1.73;;
59468;SDS011;45277;52.768;18.262;2022-07-10T06:10:52;2.67;;;1.85;;
59468;SDS011;45277;52.768;18.262;2022-07-10T06:12:25;6.45;;;1.98;;
59468;SDS011;45277;52.768;18.262;2022-07-10T06:13:57;3.22;;;1.98;;
59468;SDS011;45277;52.768;18.262;2022-07-10T06:15:29;8.98;;;2.53;;
59468;SDS011;45277;52.768;18.262;2022-07-10T06:17:00;7.40;;;2.55;;
59468;SDS011;45277;52.768;18.262;2022-07-10T06:18:32;3.60;;;2.20;;
59468;SDS011;45277;52.768;18.262;2022-07-10T06:20:10;5.60;;;2.10;;
59468;SDS011;45277;52.768;18.262;2022-07-10T06:21:41;5.45;;;2.20;;
59468;SDS011;45277;52.768;18.262;2022-07-10T06:23:15;6.43;;;2.42;;
59468;SDS011;45277;52.768;18.262;2022-07-10T06:24:47;6.22;;;2.00;;
59468;SDS011;45277;52.768;18.262;2022-07-10T06:26:20;7.70;;;2.55;;
59468;SDS011;45277;52.768;18.262;2022-07-10T06:27:53;2.95;;;1.80;;
59468;SDS011;45277;52.768;18.262;2022-07-10T06:29:24;5.43;;;2.30;;
59468;SDS011;45277;52.768;18.262;2022-07-10T06:30:56;6.30;;;2.05;;
59468;SDS011;45277;52.768;18.262;2022-07-10T06:32:28;8.38;;;2.75;;
59468;SDS011;45277;52.768;18.262;2022-07-10T06:34:05;6.15;;;2.50;;
59468;SDS011;45277;52.768;18.262;2022-07-10T06:35:37;6.20;;;3.63;;
59468;SDS011;45277;52.768;18.262;2022-07-10T06:37:14;3.33;;;1.80;;
59468;SDS011;45277;52.768;18.262;2022-07-10T06:38:46;4.47;;;2.22;;
59468;SDS011;45277;52.768;18.262;2022-07-10T06:40:20;3.13;;;1.60;;
59468;SDS011;45277;52.768;18.262;2022-07-10T06:41:54;2.05;;;1.60;;
59468;SDS011;45277;52.768;18.262;2022-07-10T06:43:26;7.38;;;2.08;;
59468;SDS011;45277;52.768;18.262;2022-07-10T06:44:57;5.72;;;1.70;;
59468;SDS011;45277;52.768;18.262;2022-07-10T06:46:29;5.30;;;2.28;;
59468;SDS011;45277;52.768;18.262;2022-07-10T06:48:00;2.65;;;1.77;;
59468;SDS011;45277;52.768;18.262;2022-07-10T06:49:32;7.82;;;2.10;;
59468;SDS011;45277;52.768;18.262;2022-07-10T06:51:05;4.15;;;1.90;;
59468;SDS011;45277;52.768;18.262;2022-07-10T06:52:38;3.70;;;2.10;;
59468;SDS011;45277;52.768;18.262;2022-07-10T06:54:09;4.88;;;1.92;;
59468;SDS011;45277;52.768;18.262;2022-07-10T06:55:41;4.63;;;2.58;;
59468;SDS011;45277;52.768;18.262;2022-07-10T06:57:15;3.97;;;2.13;;
59468;SDS011;45277;52.768;18.262;2022-07-10T06:58:49;6.50;;;2.65;;
59468;SDS011;45277;52.768;18.262;2022-07-10T07:00:22;3.15;;;2.30;;
59468;SDS011;45277;52.768;18.262;2022-07-10T07:01:53;6.57;;;2.47;;
59468;SDS011;45277;52.768;18.262;2022-07-10T07:03:25;7.50;;;2.60;;
59468;SDS011;45277;52.768;18.262;2022-07-10T07:04:56;6.10;;;2.55;;
59468;SDS011;45277;52.768;18.262;2022-07-10T07:06:29;4.53;;;1.90;;
59468;SDS011;45277;52.768;18.262;2022-07-10T07:08:03;2.45;;;1.55;;
59468;SDS011;45277;52.768;18.262;2022-07-10T07:09:35;7.57;;;2.35;;
59468;SDS011;45277;52.768;18.262;2022-07-10T07:11:07;4.60;;;1.70;;
59468;SDS011;45277;52.768;18.262;2022-07-10T07:12:38;5.20;;;1.95;;
59468;SDS011;45277;52.768;18.262;2022-07-10T07:14:12;5.85;;;2.30;;
59468;SDS011;45277;52.768;18.262;2022-07-10T07:15:44;5.13;;;2.38;;
59468;SDS011;45277;52.768;18.262;2022-07-10T07:17:23;2.75;;;1.60;;
59468;SDS011;45277;52.768;18.262;2022-07-10T07:19:04;7.80;;;1.95;;
59468;SDS011;45277;52.768;18.262;2022-07-10T07:20:45;8.07;;;2.22;;
59468;SDS011;45277;52.768;18.262;2022-07-10T07:22:35;4.82;;;1.92;;
59468;SDS011;45277;52.768;18.262;2022-07-10T07:24:25;3.80;;;1.60;;
59468;SDS011;45277;52.768;18.262;2022-07-10T07:26:14;4.13;;;1.85;;
59468;SDS011;45277;52.768;18.262;2022-07-10T07:27:46;7.50;;;2.35;;
59468;SDS011;45277;52.768;18.262;2022-07-10T07:29:17;4.55;;;2.35;;
59468;SDS011;45277;52.768;18.262;2022-07-10T07:30:50;2.65;;;1.95;;
59468;SDS011;45277;52.768;18.262;2022-07-10T07:32:21;5.93;;;2.22;;
59468;SDS011;45277;52.768;18.262;2022-07-10T07:33:53;5.35;;;2.13;;
59468;SDS011;45277;52.768;18.262;2022-07-10T07:35:24;2.95;;;1.85;;
59468;SDS011;45277;52.768;18.262;2022-07-10T07:36:56;11.05;;;2.40;;
59468;SDS011;45277;52.768;18.262;2022-07-10T07:38:28;5.88;;;2.08;;
59468;SDS011;45277;52.768;18.262;2022-07-10T07:40:00;3.25;;;1.42;;
59468;SDS011;45277;52.768;18.262;2022-07-10T07:41:33;3.38;;;1.77;;
59468;SDS011;45277;52.768;18.262;2022-07-10T07:43:06;3.28;;;1.50;;
59468;SDS011;45277;52.768;18.262;2022-07-10T07:44:37;4.13;;;1.80;;
59468;SDS011;45277;52.768;18.262;2022-07-10T07:46:09;4.13;;;2.22;;
59468;SDS011;45277;52.768;18.262;2022-07-10T07:47:59;6.43;;;2.10;;
59468;SDS011;45277;52.768;18.262;2022-07-10T07:49:38;3.95;;;1.85;;
59468;SDS011;45277;52.768;18.262;2022-07-10T07:51:09;5.07;;;1.83;;
59468;SDS011;45277;52.768;18.262;2022-07-10T07:52:42;6.57;;;2.38;;
59468;SDS011;45277;52.768;18.262;2022-07-10T07:54:14;4.38;;;2.90;;
59468;SDS011;45277;52.768;18.262;2022-07-10T07:55:48;2.70;;;1.50;;
59468;SDS011;45277;52.768;18.262;2022-07-10T07:57:20;3.95;;;1.80;;
59468;SDS011;45277;52.768;18.262;2022-07-10T07:58:52;3.78;;;1.80;;
59468;SDS011;45277;52.768;18.262;2022-07-10T08:00:24;3.92;;;1.85;;
59468;SDS011;45277;52.768;18.262;2022-07-10T08:01:57;5.40;;;1.70;;
59468;SDS011;45277;52.768;18.262;2022-07-10T08:03:29;5.00;;;1.73;;
59468;SDS011;45277;52.768;18.262;2022-07-10T08:05:02;3.10;;;1.67;;
59468;SDS011;45277;52.768;18.262;2022-07-10T08:06:36;6.15;;;1.90;;
59468;SDS011;45277;52.768;18.262;2022-07-10T08:08:08;5.82;;;1.85;;
59468;SDS011;45277;52.768;18.262;2022-07-10T08:09:40;3.50;;;1.63;;
59468;SDS011;45277;52.768;18.262;2022-07-10T08:11:14;3.25;;;1.58;;
59468;SDS011;45277;52.768;18.262;2022-07-10T08:12:46;1.45;;;1.05;;
59468;SDS011;45277;52.768;18.262;2022-07-10T08:14:19;4.30;;;1.50;;
59468;SDS011;45277;52.768;18.262;2022-07-10T08:15:51;3.05;;;2.25;;
59468;SDS011;45277;52.768;18.262;2022-07-10T08:17:22;3.05;;;1.50;;
59468;SDS011;45277;52.768;18.262;2022-07-10T08:18:54;7.20;;;1.67;;
59468;SDS011;45277;52.768;18.262;2022-07-10T08:20:26;3.53;;;1.73;;
59468;SDS011;45277;52.768;18.262;2022-07-10T08:21:58;2.35;;;1.35;;
59468;SDS011;45277;52.768;18.262;2022-07-10T08:23:30;3.65;;;1.35;;
59468;SDS011;45277;52.768;18.262;2022-07-10T08:25:03;1.88;;;1.25;;
59468;SDS011;45277;52.768;18.262;2022-07-10T08:26:36;5.70;;;1.95;;
59468;SDS011;45277;52.768;18.262;2022-07-10T08:28:08;2.90;;;1.65;;
59468;SDS011;45277;52.768;18.262;2022-07-10T08:29:43;6.63;;;1.73;;
59468;SDS011;45277;52.768;18.262;2022-07-10T08:31:14;4.00;;;1.92;;
59468;SDS011;45277;52.768;18.262;2022-07-10T08:32:46;5.05;;;2.00;;
59468;SDS011;45277;52.768;18.262;2022-07-10T08:34:23;2.45;;;1.60;;
59468;SDS011;45277;52.768;18.262;2022-07-10T08:35:55;5.40;;;1.60;;
59468;SDS011;45277;52.768;18.262;2022-07-10T08:37:40;7.72;;;2.47;;
59468;SDS011;45277;52.768;18.262;2022-07-10T08:39:12;4.95;;;1.60;;
59468;SDS011;45277;52.768;18.262;2022-07-10T08:40:46;5.60;;;1.90;;
59468;SDS011;45277;52.768;18.262;2022-07-10T08:42:18;3.70;;;1.60;;
59468;SDS011;45277;52.768;18.262;2022-07-10T08:43:51;5.85;;;1.70;;
59468;SDS011;45277;52.768;18.262;2022-07-10T08:45:25;5.35;;;1.83;;
59468;SDS011;45277;52.768;18.262;2022-07-10T08:47:01;2.70;;;2.10;;
59468;SDS011;45277;52.768;18.262;2022-07-10T08:48:40;3.38;;;1.88;;
59468;SDS011;45277;52.768;18.262;2022-07-10T08:50:21;5.05;;;1.80;;
59468;SDS011;45277;52.768;18.262;2022-07-10T08:51:57;5.10;;;2.00;;
59468;SDS011;45277;52.768;18.262;2022-07-10T08:53:30;3.22;;;1.73;;
59468;SDS011;45277;52.768;18.262;2022-07-10T08:55:04;6.43;;;1.60;;
59468;SDS011;45277;52.768;18.262;2022-07-10T08:56:36;3.88;;;1.77;;
59468;SDS011;45277;52.768;18.262;2022-07-10T08:58:09;3.10;;;2.10;;
59468;SDS011;45277;52.768;18.262;2022-07-10T08:59:42;2.83;;;1.60;;
59468;SDS011;45277;52.768;18.262;2022-07-10T09:01:14;6.45;;;1.92;;
59468;SDS011;45277;52.768;18.262;2022-07-10T09:02:54;5.28;;;1.95;;
59468;SDS011;45277;52.768;18.262;2022-07-10T09:04:32;3.00;;;1.77;;
59468;SDS011;45277;52.768;18.262;2022-07-10T09:06:05;1.85;;;1.73;;
59468;SDS011;45277;52.768;18.262;2022-07-10T09:07:38;2.78;;;1.70;;
59468;SDS011;45277;52.768;18.262;2022-07-10T09:09:12;3.22;;;1.70;;
59468;SDS011;45277;52.768;18.262;2022-07-10T09:10:46;2.13;;;1.58;;
59468;SDS011;45277;52.768;18.262;2022-07-10T09:12:21;3.63;;;1.70;;
59468;SDS011;45277;52.768;18.262;2022-07-10T09:13:54;5.45;;;1.88;;